Time;durP1;ratioP1;P1;durP2;ratioP2;P2;SDS_P1;SDS_P2;PMS_P1;PMS_P2;Temp;Humidity;BMP_temperature;BMP_pressure;BME280_temperature;BME280_humidity;BME280_pressure;Samples;Min_cycle;Max_cycle;Signal;HPM_P1;HPM_P2
2023/10/16 00:01:17;;;;;;;3.63;3.37;;;4.70;88.20;;;;;;963005;146;27321;-77
2023/10/16 00:03:43;;;;;;;3.67;3.33;;;4.70;88.40;;;;;;960891;146;27302;-77
2023/10/16 00:06:12;;;;;;;5.07;3.60;;;4.70;88.60;;;;;;963046;146;28879;-77
2023/10/16 00:08:36;;;;;;;3.70;3.40;;;4.70;88.80;;;;;;961684;146;27369;-77
2023/10/16 00:11:05;;;;;;;3.40;3.10;;;4.60;88.80;;;;;;964883;145;27404;-77
2023/10/16 00:13:29;;;;;;;4.37;3.60;;;4.60;89.00;;;;;;961631;146;27363;-77
2023/10/16 00:15:59;;;;;;;4.03;3.73;;;4.60;89.20;;;;;;964434;146;27318;-77
2023/10/16 00:18:25;;;;;;;3.97;3.67;;;4.60;89.40;;;;;;963517;146;27305;-77
2023/10/16 00:20:52;;;;;;;3.70;3.10;;;4.60;89.50;;;;;;963418;146;27415;-77
2023/10/16 00:23:20;;;;;;;3.43;3.13;;;4.70;89.50;;;;;;963439;146;27343;-77
2023/10/16 00:25:46;;;;;;;4.07;3.60;;;4.70;89.60;;;;;;963972;146;27349;-76
2023/10/16 00:28:14;;;;;;;3.67;3.37;;;4.70;89.70;;;;;;937529;150;27403;-76
2023/10/16 00:30:40;;;;;;;5.47;3.20;;;4.70;89.80;;;;;;963706;146;27384;-74
2023/10/16 00:33:10;;;;;;;3.77;3.47;;;4.70;90.20;;;;;;964923;146;27326;-74
2023/10/16 00:35:31;;;;;;;5.03;3.07;;;4.70;90.00;;;;;;963815;146;27326;-74
2023/10/16 00:37:58;;;;;;;3.80;3.40;;;4.70;90.00;;;;;;963882;146;27329;-73
2023/10/16 00:40:33;;;;;;;3.70;3.40;;;4.70;90.00;;;;;;964573;146;27345;-74
2023/10/16 00:43:05;;;;;;;4.03;3.73;;;4.70;90.10;;;;;;964265;146;27436;-74
2023/10/16 00:45:29;;;;;;;3.73;3.43;;;4.70;90.00;;;;;;963756;146;27317;-76
2023/10/16 00:47:58;;;;;;;4.27;3.87;;;4.70;89.90;;;;;;963190;146;27707;-75
2023/10/16 00:50:23;;;;;;;3.97;3.60;;;4.70;89.80;;;;;;963144;146;27898;-75
2023/10/16 00:52:49;;;;;;;3.43;3.13;;;4.60;89.80;;;;;;962328;146;27368;-75
2023/10/16 00:55:19;;;;;;;3.30;3.00;;;4.60;89.80;;;;;;951090;147;27344;-75
2023/10/16 00:57:43;;;;;;;4.67;3.20;;;4.60;90.00;;;;;;949729;147;27318;-75
2023/10/16 01:00:15;;;;;;;3.87;3.53;;;4.50;90.00;;;;;;950137;147;27422;-75
2023/10/16 01:02:42;;;;;;;4.00;3.70;;;4.50;90.00;;;;;;948907;147;27451;-74
2023/10/16 01:05:08;;;;;;;4.73;3.57;;;4.50;90.10;;;;;;950102;147;27372;-74
2023/10/16 01:07:36;;;;;;;3.90;3.60;;;4.50;90.30;;;;;;951557;147;27856;-75
2023/10/16 01:10:01;;;;;;;3.97;3.57;;;4.40;90.40;;;;;;950232;147;27353;-75
2023/10/16 01:12:28;;;;;;;3.63;3.33;;;4.40;90.40;;;;;;948328;147;27279;-74
2023/10/16 01:14:54;;;;;;;5.23;3.40;;;4.40;90.40;;;;;;948314;147;27390;-75
2023/10/16 01:17:29;;;;;;;3.93;3.43;;;4.40;90.40;;;;;;950305;147;27475;-77
2023/10/16 01:19:48;;;;;;;6.43;4.63;;;4.40;90.40;;;;;;948217;147;27312;-75
2023/10/16 01:22:15;;;;;;;3.60;3.30;;;4.40;90.50;;;;;;949352;147;27421;-74
2023/10/16 01:24:44;;;;;;;4.27;3.87;;;4.30;90.40;;;;;;950157;147;27259;-75
2023/10/16 01:27:14;;;;;;;6.00;3.87;;;4.30;90.40;;;;;;948914;147;27272;-76
2023/10/16 01:29:37;;;;;;;3.80;3.50;;;4.30;90.50;;;;;;949759;147;27352;-74
2023/10/16 01:32:04;;;;;;;5.93;3.53;;;4.20;90.50;;;;;;950498;147;27324;-75
2023/10/16 01:34:32;;;;;;;3.90;3.50;;;4.20;90.50;;;;;;949668;147;27376;-74
2023/10/16 01:37:01;;;;;;;5.30;3.50;;;4.20;90.60;;;;;;950036;147;27311;-74
2023/10/16 01:42:09;;;;;;;4.23;3.67;;;4.10;90.60;;;;;;939215;149;27396;-77
2023/10/16 01:44:28;;;;;;;3.93;3.40;;;4.10;90.60;;;;;;948554;147;27328;-77
2023/10/16 01:46:55;;;;;;;4.07;3.63;;;4.10;90.70;;;;;;949741;147;27354;-77
2023/10/16 01:49:27;;;;;;;3.40;2.93;;;4.10;90.80;;;;;;949104;147;27359;-77
2023/10/16 01:51:56;;;;;;;3.70;3.40;;;4.00;90.90;;;;;;950105;147;27342;-77
2023/10/16 01:54:22;;;;;;;4.10;3.70;;;4.00;90.90;;;;;;948786;146;27303;-77
2023/10/16 01:56:47;;;;;;;3.93;3.63;;;4.00;90.90;;;;;;947849;146;28654;-77
2023/10/16 01:59:14;;;;;;;4.17;3.87;;;4.00;91.00;;;;;;948367;146;27365;-77
2023/10/16 02:01:41;;;;;;;3.73;3.30;;;3.90;91.00;;;;;;949485;146;27347;-77
2023/10/16 02:04:07;;;;;;;4.30;3.90;;;3.90;91.10;;;;;;947854;146;27291;-77
2023/10/16 02:06:34;;;;;;;4.83;3.40;;;3.90;91.10;;;;;;947209;146;27732;-77
2023/10/16 02:09:00;;;;;;;4.63;3.63;;;3.90;91.20;;;;;;948251;146;27383;-77
2023/10/16 02:11:27;;;;;;;4.23;3.83;;;3.90;91.30;;;;;;949483;146;27361;-77
2023/10/16 02:13:55;;;;;;;4.87;3.63;;;3.90;91.20;;;;;;949231;146;27362;-77
2023/10/16 02:16:22;;;;;;;3.77;3.47;;;3.80;91.20;;;;;;948081;146;27315;-77
2023/10/16 02:18:47;;;;;;;4.33;3.70;;;3.80;91.30;;;;;;947818;146;27333;-77
2023/10/16 02:21:13;;;;;;;5.30;4.00;;;3.80;91.30;;;;;;949123;146;27412;-77
2023/10/16 02:23:51;;;;;;;5.47;3.40;;;3.80;91.30;;;;;;949819;146;27646;-77
2023/10/16 02:26:21;;;;;;;4.37;3.60;;;3.80;91.30;;;;;;946398;146;27423;-77
2023/10/16 02:28:47;;;;;;;4.53;3.70;;;3.80;91.30;;;;;;948818;146;27291;-77
2023/10/16 02:31:14;;;;;;;3.93;3.63;;;3.70;91.30;;;;;;949653;146;27332;-77
2023/10/16 02:33:44;;;;;;;4.37;3.50;;;3.70;91.40;;;;;;950227;146;27374;-77
2023/10/16 02:36:07;;;;;;;3.83;3.53;;;3.70;91.50;;;;;;947391;146;27326;-77
2023/10/16 02:38:34;;;;;;;4.10;3.70;;;3.70;91.60;;;;;;948868;146;27309;-77
2023/10/16 02:41:07;;;;;;;4.23;3.57;;;3.60;91.60;;;;;;949321;146;27449;-77
2023/10/16 02:43:37;;;;;;;4.10;3.63;;;3.70;91.80;;;;;;948588;146;27487;-77
2023/10/16 02:46:01;;;;;;;4.17;3.77;;;3.70;91.80;;;;;;948783;146;27408;-77
2023/10/16 02:48:28;;;;;;;3.67;3.37;;;3.60;91.90;;;;;;948744;146;27291;-77
2023/10/16 02:50:56;;;;;;;3.60;3.30;;;3.70;92.00;;;;;;949531;146;27365;-77
2023/10/16 02:53:24;;;;;;;3.83;3.53;;;3.70;92.10;;;;;;948171;146;27444;-77
2023/10/16 02:55:53;;;;;;;3.97;3.53;;;3.70;92.10;;;;;;949419;146;27756;-77
2023/10/16 02:58:17;;;;;;;3.87;3.57;;;3.70;92.10;;;;;;947579;147;27365;-77
2023/10/16 03:00:49;;;;;;;4.00;3.57;;;3.70;92.20;;;;;;950329;147;28414;-77
2023/10/16 03:03:10;;;;;;;4.23;3.83;;;3.70;92.20;;;;;;948843;147;27344;-77
2023/10/16 03:05:37;;;;;;;4.50;3.93;;;3.70;92.30;;;;;;950496;147;27307;-77
2023/10/16 03:08:05;;;;;;;3.90;3.47;;;3.70;92.30;;;;;;953503;147;27406;-77
2023/10/16 03:10:30;;;;;;;4.40;3.40;;;3.70;92.20;;;;;;949313;147;27390;-77
2023/10/16 03:13:00;;;;;;;5.43;3.43;;;3.70;92.20;;;;;;947366;147;27356;-77
2023/10/16 03:15:30;;;;;;;3.80;3.50;;;3.70;92.20;;;;;;948487;147;27268;-77
2023/10/16 03:17:55;;;;;;;3.77;3.43;;;3.70;92.10;;;;;;950368;147;27369;-77
2023/10/16 03:20:35;;;;;;;3.37;3.17;;;3.70;92.10;;;;;;948152;147;27386;-77
2023/10/16 03:22:50;;;;;;;4.00;3.60;;;3.60;92.10;;;;;;947889;147;27394;-77
2023/10/16 03:28:00;;;;;;;3.73;3.40;;;3.60;92.30;;;;;;948747;147;27483;-77
2023/10/16 03:30:27;;;;;;;4.00;3.50;;;3.60;92.20;;;;;;947770;147;27433;-77
2023/10/16 03:32:58;;;;;;;3.60;3.30;;;3.60;92.30;;;;;;926485;150;27422;-77
2023/10/16 03:35:26;;;;;;;3.83;3.53;;;3.50;92.40;;;;;;925694;150;27402;-77
2023/10/16 03:37:52;;;;;;;3.87;3.30;;;3.50;92.40;;;;;;926202;150;27377;-77
2023/10/16 03:40:19;;;;;;;3.77;3.47;;;3.50;92.50;;;;;;926805;150;27283;-77
2023/10/16 03:42:45;;;;;;;3.30;3.00;;;3.50;92.50;;;;;;910629;152;27375;-77
2023/10/16 03:45:13;;;;;;;3.70;3.40;;;3.50;92.60;;;;;;925845;150;27423;-77
2023/10/16 03:47:38;;;;;;;4.00;3.60;;;3.50;92.70;;;;;;926714;150;27744;-77
2023/10/16 03:50:04;;;;;;;4.20;3.50;;;3.50;92.80;;;;;;909957;153;27402;-77
2023/10/16 03:52:31;;;;;;;3.53;3.27;;;3.50;92.90;;;;;;909319;153;27454;-77
2023/10/16 03:54:58;;;;;;;3.57;3.27;;;3.40;92.80;;;;;;925457;150;27365;-77
2023/10/16 03:57:24;;;;;;;3.70;3.40;;;3.40;92.80;;;;;;909962;153;27452;-78
2023/10/16 03:59:51;;;;;;;3.50;3.20;;;3.40;92.70;;;;;;923860;150;27431;-79
2023/10/16 04:02:19;;;;;;;4.13;3.70;;;3.40;92.80;;;;;;924832;150;27388;-81
2023/10/16 04:04:44;;;;;;;3.70;3.40;;;3.40;92.80;;;;;;925310;150;27443;-80
2023/10/16 04:07:14;;;;;;;3.63;3.33;;;3.40;92.90;;;;;;929369;150;27763;-80
2023/10/16 04:09:45;;;;;;;4.40;3.50;;;3.40;93.00;;;;;;923468;152;27403;-77
2023/10/16 04:12:07;;;;;;;4.23;3.47;;;3.40;93.00;;;;;;904752;152;27372;-81
2023/10/16 04:14:45;;;;;;;3.30;3.00;;;3.40;93.00;;;;;;932390;149;27362;-81
2023/10/16 04:17:12;;;;;;;5.03;4.30;;;3.40;93.10;;;;;;948121;147;27351;-80
2023/10/16 04:20:22;;;;;;;4.57;3.43;;;3.40;93.10;;;;;;950654;146;27431;-80
2023/10/16 04:22:08;;;;;;;6.70;4.07;;;3.40;93.30;;;;;;902365;152;27419;-81
2023/10/16 04:24:40;;;;;;;3.77;3.47;;;3.40;93.50;;;;;;926495;150;27363;-78
2023/10/16 04:27:43;;;;;;;4.23;3.83;;;3.40;93.60;;;;;;913735;152;27422;-80
2023/10/16 04:29:33;;;;;;;6.77;4.90;;;3.40;93.60;;;;;;897232;153;27297;-80
2023/10/16 04:32:19;;;;;;;6.17;4.60;;;3.40;93.60;;;;;;916976;152;27486;-81
2023/10/16 04:36:53;;;;;;;5.97;4.77;;;3.40;93.80;;;;;;912774;152;27470;-81
2023/10/16 04:47:41;;;;;;;4.00;3.60;;;3.60;94.40;;;;;;911088;153;28056;-78
2023/10/16 04:50:09;;;;;;;6.53;4.27;;;3.60;94.60;;;;;;926010;150;27447;-80
2023/10/16 04:53:06;;;;;;;11.03;4.70;;;3.60;94.70;;;;;;905028;152;27412;-81
2023/10/16 04:55:08;;;;;;;13.93;5.70;;;3.70;94.90;;;;;;923959;150;27478;-81
2023/10/16 04:57:47;;;;;;;15.97;5.80;;;3.70;95.00;;;;;;944881;148;27411;-81
2023/10/16 05:03:05;;;;;;;16.57;5.33;;;3.90;95.40;;;;;;933636;151;27348;-81
2023/10/16 05:08:59;;;;;;;22.30;5.57;;;4.00;95.50;;;;;;931593;151;27396;-81
2023/10/16 05:13:39;;;;;;;26.20;5.50;;;4.20;95.60;;;;;;892767;158;27460;-76
2023/10/16 06:15:47;;;;;;;26.13;6.70;;;5.20;96.50;;;;;;948426;148;27375;-77
2023/10/16 06:18:13;;;;;;;17.07;5.97;;;5.30;96.40;;;;;;947980;148;27386;-76
2023/10/16 06:20:43;;;;;;;29.07;5.70;;;5.30;96.30;;;;;;937225;151;27277;-78
2023/10/16 06:23:10;;;;;;;38.97;7.87;;;5.30;96.30;;;;;;931647;151;27449;-80
2023/10/16 06:25:35;;;;;;;19.17;6.17;;;5.40;96.30;;;;;;938906;151;27357;-81
2023/10/16 06:28:08;;;;;;;31.53;7.00;;;5.40;96.50;;;;;;948514;148;27457;-81
2023/10/16 06:30:28;;;;;;;33.80;6.63;;;5.50;96.60;;;;;;947288;148;27332;-79
2023/10/16 06:32:55;;;;;;;32.37;6.80;;;5.50;96.80;;;;;;949636;148;27317;-78
2023/10/16 06:35:21;;;;;;;29.23;6.90;;;5.60;96.70;;;;;;948482;148;27351;-80
2023/10/16 06:37:57;;;;;;;41.40;8.40;;;5.70;96.50;;;;;;948112;148;27466;-80
2023/10/16 06:40:17;;;;;;;56.67;9.73;;;5.70;96.30;;;;;;925799;151;27414;-80
2023/10/16 06:42:46;;;;;;;42.90;9.13;;;5.80;96.00;;;;;;933668;151;27367;-78
2023/10/16 06:45:19;;;;;;;59.70;9.57;;;5.80;95.90;;;;;;930460;151;27385;-80
2023/10/16 06:47:48;;;;;;;35.30;8.40;;;5.80;95.80;;;;;;947250;148;27469;-79
2023/10/16 06:52:51;;;;;;;35.70;5.83;;;5.80;95.90;;;;;;929679;151;27418;-76
2023/10/16 06:55:17;;;;;;;58.40;9.40;;;5.90;96.10;;;;;;948644;148;27768;-80
2023/10/16 06:57:43;;;;;;;50.37;8.10;;;5.90;96.30;;;;;;938324;148;27406;-79
2023/10/16 07:00:22;;;;;;;39.37;7.10;;;6.00;96.20;;;;;;926986;150;27435;-76
2023/10/16 07:02:37;;;;;;;33.43;7.10;;;6.00;96.10;;;;;;913269;152;27383;-80
2023/10/16 07:05:05;;;;;;;74.03;10.33;;;6.00;96.30;;;;;;911118;152;27381;-78
2023/10/16 07:07:30;;;;;;;84.27;10.73;;;6.00;96.40;;;;;;910128;152;27367;-77
2023/10/16 07:09:56;;;;;;;68.50;9.70;;;6.10;96.70;;;;;;911778;153;28018;-79
2023/10/16 08:25:07;;;;;;;10.27;8.73;;;5.80;99.90;;;;;;957011;146;41047;-77
2023/10/16 08:30:17;;;;;;;9.67;8.07;;;7.70;99.90;;;;;;941038;149;27837;-76
2023/10/16 08:32:53;;;;;;;8.93;8.00;;;7.90;99.90;;;;;;957157;146;28137;-76
2023/10/16 08:35:19;;;;;;;7.77;6.90;;;8.20;99.90;;;;;;957927;146;27317;-76
2023/10/16 08:37:44;;;;;;;8.30;7.03;;;8.40;99.90;;;;;;957669;146;27724;-76
2023/10/16 08:40:20;;;;;;;10.17;6.67;;;8.60;99.90;;;;;;959798;146;27336;-76
2023/10/16 08:43:00;;;;;;;8.07;7.00;;;8.80;99.90;;;;;;958168;146;27923;-76
2023/10/16 08:45:24;;;;;;;8.60;6.63;;;8.90;99.90;;;;;;956311;146;27459;-76
2023/10/16 08:47:46;;;;;;;9.67;7.50;;;9.10;99.80;;;;;;958521;146;28110;-76
2023/10/16 08:50:17;;;;;;;9.80;8.33;;;9.20;99.40;;;;;;959269;146;27445;-76
2023/10/16 08:52:39;;;;;;;9.53;7.00;;;9.30;99.10;;;;;;957854;146;27419;-76
2023/10/16 08:55:17;;;;;;;9.27;7.53;;;9.40;98.80;;;;;;959630;146;27453;-76
2023/10/16 08:57:43;;;;;;;7.90;7.10;;;9.50;98.50;;;;;;958215;146;28027;-76
2023/10/16 09:00:15;;;;;;;9.50;7.73;;;9.60;98.20;;;;;;958933;146;27347;-76
2023/10/16 09:02:36;;;;;;;8.77;7.87;;;9.70;98.20;;;;;;957106;146;27696;-76
2023/10/16 09:05:08;;;;;;;8.73;7.87;;;9.80;98.20;;;;;;958881;146;27472;-76
2023/10/16 09:07:32;;;;;;;9.53;8.57;;;9.90;98.40;;;;;;957176;146;27755;-76
2023/10/16 09:09:56;;;;;;;8.03;7.23;;;10.00;98.60;;;;;;957618;146;27733;-76
2023/10/16 09:12:26;;;;;;;8.77;7.97;;;10.10;98.50;;;;;;958900;146;27440;-76
2023/10/16 09:14:52;;;;;;;8.63;7.83;;;10.30;98.00;;;;;;959409;146;27428;-76
2023/10/16 09:17:21;;;;;;;8.33;7.47;;;10.40;97.40;;;;;;942613;146;27362;-76
2023/10/16 09:19:48;;;;;;;8.03;7.33;;;10.60;96.90;;;;;;936044;149;27548;-76
2023/10/16 09:22:15;;;;;;;8.90;8.10;;;10.70;96.50;;;;;;936746;150;27354;-76
2023/10/16 09:24:44;;;;;;;11.63;7.63;;;10.80;96.30;;;;;;935166;149;28002;-76
2023/10/16 09:27:17;;;;;;;9.03;7.03;;;10.90;96.60;;;;;;935304;150;27425;-78
2023/10/16 09:29:42;;;;;;;9.37;6.90;;;11.20;98.10;;;;;;935963;151;27332;-80
2023/10/16 09:32:06;;;;;;;10.27;7.77;;;11.40;99.80;;;;;;934186;150;27343;-78
2023/10/16 09:34:33;;;;;;;8.35;7.55;;;11.80;99.90;;;;;;936124;150;27354;-77
2023/10/16 09:37:15;;;;;;;7.83;7.03;;;12.20;99.90;;;;;;935396;148;27332;-77
2023/10/16 09:39:52;;;;;;;8.08;6.83;;;12.70;99.30;;;;;;935844;150;27784;-79
2023/10/16 09:42:14;;;;;;;7.72;6.92;;;13.20;97.80;;;;;;934192;149;27702;-79
2023/10/16 09:44:40;;;;;;;6.90;6.22;;;13.50;96.20;;;;;;934786;150;27495;-80
2023/10/16 09:47:27;;;;;;;6.20;5.65;;;13.90;94.80;;;;;;934264;151;27344;-79
2023/10/16 09:49:59;;;;;;;7.70;5.47;;;14.20;93.00;;;;;;935400;151;27796;-80
2023/10/16 09:52:23;;;;;;;6.60;6.00;;;14.50;91.50;;;;;;932797;151;27888;-79
2023/10/16 09:54:50;;;;;;;6.20;5.60;;;14.70;90.10;;;;;;934866;151;27408;-78
2023/10/16 09:57:29;;;;;;;6.80;6.20;;;14.90;87.20;;;;;;936008;149;27383;-77
2023/10/16 09:59:45;;;;;;;6.42;5.78;;;15.00;84.20;;;;;;931220;151;28140;-79
2023/10/16 10:02:18;;;;;;;6.83;6.15;;;15.00;82.90;;;;;;935728;149;27470;-77
2023/10/16 10:04:59;;;;;;;6.40;5.47;;;15.00;82.80;;;;;;935957;149;27498;-79
2023/10/16 10:07:34;;;;;;;6.60;5.70;;;15.00;82.50;;;;;;933701;151;27417;-79
2023/10/16 10:09:49;;;;;;;6.87;6.28;;;15.00;81.70;;;;;;932785;149;27315;-80
2023/10/16 10:12:37;;;;;;;7.00;6.17;;;15.00;80.70;;;;;;933880;151;27737;-77
2023/10/16 10:15:12;;;;;;;7.30;6.58;;;14.90;79.90;;;;;;934650;151;27394;-80
2023/10/16 10:17:30;;;;;;;7.58;6.80;;;14.90;79.30;;;;;;932633;149;27515;-81
2023/10/16 10:19:58;;;;;;;6.37;5.45;;;14.90;79.10;;;;;;934648;150;27350;-79
2023/10/16 10:22:29;;;;;;;6.55;5.97;;;14.80;79.10;;;;;;888330;156;27456;-80
2023/10/16 10:25:46;;;;;;;7.27;6.50;;;14.70;78.90;;;;;;891992;157;27456;-77
2023/10/16 10:27:45;;;;;;;7.97;7.25;;;14.70;78.60;;;;;;913002;149;27555;-78
2023/10/16 10:30:17;;;;;;;8.40;7.53;;;14.70;78.60;;;;;;940098;151;27342;-81
2023/10/16 10:32:38;;;;;;;9.40;8.08;;;14.70;78.20;;;;;;936910;149;27395;-79
2023/10/16 10:35:29;;;;;;;8.75;7.92;;;14.60;78.00;;;;;;940138;151;27823;-81
2023/10/16 10:38:29;;;;;;;8.15;7.35;;;14.50;77.90;;;;;;939953;149;27386;-78
2023/10/16 10:41:05;;;;;;;6.77;6.13;;;14.50;78.20;;;;;;938863;150;27451;-80
2023/10/16 10:43:49;;;;;;;6.83;6.22;;;14.50;78.30;;;;;;939634;150;27807;-80
2023/10/16 10:46:21;;;;;;;6.70;6.10;;;14.40;78.10;;;;;;939798;149;27395;-80
2023/10/16 10:48:48;;;;;;;7.28;6.53;;;14.40;77.90;;;;;;940101;151;27460;-81
2023/10/16 10:51:14;;;;;;;6.47;5.87;;;14.40;77.70;;;;;;940026;150;27522;-78
2023/10/16 10:53:56;;;;;;;9.50;6.47;;;14.40;77.60;;;;;;937397;149;27455;-77
2023/10/16 10:56:22;;;;;;;5.90;5.43;;;14.40;77.60;;;;;;939944;149;27718;-81
2023/10/16 10:58:49;;;;;;;6.57;5.67;;;14.40;77.60;;;;;;939956;151;27934;-79
2023/10/16 11:01:33;;;;;;;6.50;5.90;;;14.30;77.50;;;;;;939540;149;27404;-80
2023/10/16 11:03:55;;;;;;;6.70;5.67;;;14.30;77.70;;;;;;938206;149;27381;-80
2023/10/16 11:06:20;;;;;;;6.70;5.77;;;14.30;77.70;;;;;;939876;150;27380;-80
2023/10/16 11:08:50;;;;;;;7.77;4.93;;;14.30;78.30;;;;;;939670;151;27393;-80
2023/10/16 11:18:07;;;;;;;5.00;4.55;;;14.20;76.80;;;;;;941037;151;27527;-82
2023/10/16 11:20:36;;;;;;;6.30;5.03;;;14.20;76.90;;;;;;941055;150;27358;-81
2023/10/16 11:23:00;;;;;;;5.30;4.50;;;14.10;76.80;;;;;;941209;150;27289;-75
2023/10/16 11:25:28;;;;;;;5.47;4.60;;;14.10;76.60;;;;;;940323;151;27324;-79
2023/10/16 11:27:54;;;;;;;7.30;4.20;;;14.10;76.60;;;;;;941197;151;27320;-79
2023/10/16 11:30:20;;;;;;;5.58;4.47;;;14.00;76.70;;;;;;941133;151;27716;-75
2023/10/16 11:32:46;;;;;;;5.03;3.77;;;14.00;76.80;;;;;;941965;150;27503;-81
2023/10/16 11:35:14;;;;;;;5.65;5.20;;;14.00;76.70;;;;;;942242;149;27442;-79
2023/10/16 11:37:43;;;;;;;4.50;4.10;;;14.00;76.70;;;;;;941456;151;27355;-83
2023/10/16 11:40:18;;;;;;;4.60;4.20;;;14.10;76.90;;;;;;940856;150;27436;-84
2023/10/16 11:42:33;;;;;;;4.47;3.83;;;14.10;76.90;;;;;;940030;149;27305;-78
2023/10/16 11:45:00;;;;;;;4.10;3.77;;;14.10;76.70;;;;;;940115;150;27300;-79
2023/10/16 11:47:36;;;;;;;5.40;3.70;;;14.10;76.60;;;;;;940479;150;27386;-79
2023/10/16 11:49:58;;;;;;;3.87;3.58;;;14.10;76.30;;;;;;940438;151;27423;-79
2023/10/16 11:52:19;;;;;;;5.90;3.83;;;14.10;76.10;;;;;;939182;151;27310;-75
2023/10/16 11:54:50;;;;;;;5.13;3.53;;;14.10;75.70;;;;;;940939;150;27326;-76
2023/10/16 11:57:16;;;;;;;4.20;3.20;;;14.10;75.70;;;;;;940481;151;27194;-79
2023/10/16 11:59:41;;;;;;;3.80;3.40;;;14.10;75.80;;;;;;940838;151;27333;-79
2023/10/16 12:02:17;;;;;;;6.17;4.40;;;14.10;75.80;;;;;;940378;151;27338;-79
2023/10/16 12:04:41;;;;;;;5.40;3.40;;;14.00;75.70;;;;;;940757;151;27390;-78
2023/10/16 12:07:12;;;;;;;3.52;3.22;;;14.10;75.70;;;;;;939400;151;27279;-79
2023/10/16 12:09:42;;;;;;;3.43;3.13;;;14.10;75.60;;;;;;939864;151;27302;-79
2023/10/16 12:12:16;;;;;;;3.97;3.03;;;14.00;75.50;;;;;;940767;151;27385;-79
2023/10/16 12:14:38;;;;;;;3.23;2.50;;;14.00;75.20;;;;;;940418;151;27263;-79
2023/10/16 12:17:11;;;;;;;3.47;2.90;;;14.00;75.10;;;;;;940690;151;27269;-79
2023/10/16 12:19:31;;;;;;;3.67;2.87;;;14.10;75.20;;;;;;939682;151;27494;-78
2023/10/16 12:22:00;;;;;;;4.42;2.70;;;14.00;74.90;;;;;;938904;151;27470;-79
2023/10/16 12:24:24;;;;;;;5.20;3.13;;;14.10;74.80;;;;;;941000;151;27286;-80
2023/10/16 12:26:52;;;;;;;4.63;3.07;;;14.00;74.70;;;;;;936258;151;27351;-80
2023/10/16 12:29:18;;;;;;;3.90;3.00;;;14.00;74.80;;;;;;931744;151;27320;-80
2023/10/16 12:31:44;;;;;;;3.27;2.97;;;14.00;75.00;;;;;;931601;152;27403;-80
2023/10/16 12:34:16;;;;;;;2.75;2.55;;;14.00;74.90;;;;;;931295;151;27382;-79
2023/10/16 12:36:42;;;;;;;4.40;3.22;;;14.00;74.90;;;;;;932325;152;27370;-80
2023/10/16 12:39:25;;;;;;;4.30;2.95;;;14.00;74.60;;;;;;930523;152;27375;-79
2023/10/16 12:41:59;;;;;;;3.83;2.47;;;14.00;74.40;;;;;;931794;151;27275;-79
2023/10/16 12:44:27;;;;;;;3.00;2.80;;;14.10;74.60;;;;;;932676;151;27370;-79
2023/10/16 12:46:56;;;;;;;4.62;2.37;;;14.10;74.60;;;;;;932713;151;27288;-79
2023/10/16 12:49:22;;;;;;;3.83;2.37;;;14.10;74.60;;;;;;932224;152;27284;-79
2023/10/16 12:51:49;;;;;;;3.50;2.30;;;14.10;74.60;;;;;;931384;151;28495;-79
2023/10/16 12:54:16;;;;;;;7.17;2.70;;;14.20;74.60;;;;;;931791;152;27372;-75
2023/10/16 12:56:45;;;;;;;3.58;2.52;;;14.20;74.50;;;;;;932084;152;27368;-80
2023/10/16 12:59:09;;;;;;;2.60;2.40;;;14.20;74.50;;;;;;931982;152;27311;-77
2023/10/16 13:01:36;;;;;;;3.30;2.52;;;14.30;74.20;;;;;;931878;151;27305;-79
2023/10/16 13:04:03;;;;;;;3.08;1.90;;;14.30;74.30;;;;;;932166;152;27872;-80
2023/10/16 13:06:29;;;;;;;2.87;2.00;;;14.40;74.40;;;;;;931849;152;27334;-80
2023/10/16 13:08:56;;;;;;;2.33;1.90;;;14.50;74.40;;;;;;930848;152;27440;-79
2023/10/16 13:11:22;;;;;;;2.27;2.05;;;14.60;74.40;;;;;;930981;152;27323;-78
2023/10/16 13:13:48;;;;;;;3.87;2.15;;;14.70;74.10;;;;;;933486;152;27472;-75
2023/10/16 13:16:24;;;;;;;1.85;1.75;;;14.80;74.10;;;;;;889474;159;27442;-75
2023/10/16 13:18:43;;;;;;;2.87;1.90;;;14.90;73.90;;;;;;912967;154;27401;-76
2023/10/16 13:21:12;;;;;;;2.22;1.70;;;15.00;73.70;;;;;;915141;154;27466;-76
2023/10/16 13:23:36;;;;;;;3.10;1.82;;;15.10;73.40;;;;;;914855;155;27389;-76
2023/10/16 13:26:01;;;;;;;2.12;1.60;;;15.20;73.20;;;;;;915175;154;27388;-76
2023/10/16 13:28:29;;;;;;;2.67;1.80;;;15.30;72.90;;;;;;897991;156;27870;-76
2023/10/16 13:30:54;;;;;;;3.08;1.50;;;15.40;72.80;;;;;;898391;157;27516;-76
2023/10/16 13:33:21;;;;;;;3.92;1.40;;;15.40;72.50;;;;;;915479;154;27357;-76
2023/10/16 13:35:48;;;;;;;2.70;1.72;;;15.50;72.30;;;;;;914732;154;27334;-76
2023/10/16 13:38:14;;;;;;;1.67;1.57;;;15.60;71.90;;;;;;914409;154;27342;-76
2023/10/16 13:40:43;;;;;;;2.52;1.37;;;15.70;71.90;;;;;;915499;154;27393;-76
2023/10/16 13:43:17;;;;;;;2.72;1.60;;;15.70;71.20;;;;;;916682;155;27411;-76
2023/10/16 13:45:40;;;;;;;3.50;1.60;;;15.80;71.00;;;;;;916307;154;27418;-76
2023/10/16 13:48:09;;;;;;;1.72;1.40;;;15.80;70.70;;;;;;916731;155;27394;-76
2023/10/16 13:50:34;;;;;;;2.92;1.30;;;15.80;70.30;;;;;;916072;154;27416;-76
2023/10/16 13:52:59;;;;;;;1.70;1.20;;;15.80;70.00;;;;;;916146;155;27995;-76
2023/10/16 13:55:30;;;;;;;1.20;1.10;;;15.80;69.60;;;;;;916727;155;27384;-76
2023/10/16 13:57:54;;;;;;;1.00;1.00;;;15.80;69.50;;;;;;916200;155;27420;-76
2023/10/16 14:00:41;;;;;;;2.27;1.17;;;15.90;69.50;;;;;;915904;155;27444;-76
2023/10/16 14:05:46;;;;;;;2.05;1.52;;;15.90;69.00;;;;;;916724;155;27446;-78
2023/10/16 14:08:14;;;;;;;2.65;1.42;;;15.90;68.80;;;;;;916222;154;27381;-76
2023/10/16 14:10:46;;;;;;;1.52;1.12;;;15.90;68.70;;;;;;916343;154;27574;-76
2023/10/16 14:13:11;;;;;;;2.83;1.10;;;15.90;68.60;;;;;;915279;155;27366;-76
2023/10/16 14:15:32;;;;;;;1.27;1.07;;;15.80;68.20;;;;;;916007;154;27351;-76
2023/10/16 14:17:59;;;;;;;1.32;1.22;;;15.90;68.00;;;;;;916842;155;27448;-76
2023/10/16 14:20:37;;;;;;;1.55;1.07;;;15.90;67.90;;;;;;915722;154;27335;-76
2023/10/16 14:23:03;;;;;;;2.22;0.88;;;15.80;67.90;;;;;;916845;154;28877;-76
2023/10/16 14:25:32;;;;;;;2.72;1.40;;;15.80;67.80;;;;;;916972;155;27417;-76
2023/10/16 14:28:11;;;;;;;1.85;1.10;;;15.80;67.60;;;;;;916989;155;27507;-76
2023/10/16 14:30:25;;;;;;;3.15;1.25;;;15.90;67.70;;;;;;915139;153;27486;-76
2023/10/16 14:32:53;;;;;;;1.60;1.35;;;15.90;67.30;;;;;;917265;155;27326;-76
2023/10/16 14:35:19;;;;;;;1.32;1.20;;;15.80;67.00;;;;;;916940;155;27361;-76
2023/10/16 14:37:45;;;;;;;2.55;1.37;;;15.80;66.80;;;;;;916824;155;27491;-80
2023/10/16 14:40:15;;;;;;;1.55;1.17;;;15.70;66.60;;;;;;916428;154;27449;-80
2023/10/16 14:42:40;;;;;;;1.55;1.32;;;15.70;66.40;;;;;;914934;155;27452;-79
2023/10/16 14:45:06;;;;;;;1.80;1.20;;;15.60;66.50;;;;;;916491;153;27435;-80
2023/10/16 14:47:36;;;;;;;2.90;1.20;;;15.50;66.40;;;;;;916432;155;27405;-79
2023/10/16 14:50:00;;;;;;;3.77;1.47;;;15.40;66.50;;;;;;916184;154;27487;-79
2023/10/16 14:52:25;;;;;;;2.30;1.20;;;15.30;66.70;;;;;;916362;154;27399;-78
2023/10/16 14:54:52;;;;;;;2.33;1.80;;;15.30;66.80;;;;;;917032;154;27541;-79
2023/10/16 14:57:24;;;;;;;1.90;1.62;;;15.20;66.80;;;;;;916548;153;27436;-79
2023/10/16 14:59:45;;;;;;;1.82;1.47;;;15.10;67.00;;;;;;915780;154;27439;-79
2023/10/16 15:02:12;;;;;;;1.20;1.10;;;15.10;67.00;;;;;;915816;153;27444;-78
2023/10/16 15:04:38;;;;;;;1.65;1.42;;;14.90;66.90;;;;;;916482;154;27502;-78
2023/10/16 15:07:07;;;;;;;1.50;1.40;;;14.90;67.00;;;;;;916628;155;27387;-80
2023/10/16 15:09:31;;;;;;;2.50;1.57;;;14.80;66.90;;;;;;916168;154;27435;-79
2023/10/16 15:11:59;;;;;;;2.65;1.55;;;14.70;67.00;;;;;;916107;154;27378;-79
2023/10/16 15:14:24;;;;;;;2.42;1.57;;;14.70;67.20;;;;;;916703;153;27451;-76
2023/10/16 15:16:51;;;;;;;4.77;1.30;;;14.60;67.30;;;;;;923319;151;27487;-79
2023/10/16 15:19:17;;;;;;;2.37;1.57;;;14.60;67.50;;;;;;941192;150;27298;-75
2023/10/16 15:21:44;;;;;;;1.50;1.10;;;14.50;67.50;;;;;;941130;150;27417;-79
2023/10/16 15:24:11;;;;;;;3.10;1.40;;;14.50;67.70;;;;;;941922;150;27323;-79
2023/10/16 15:26:37;;;;;;;1.35;1.15;;;14.40;67.60;;;;;;941996;151;27230;-78
2023/10/16 15:29:04;;;;;;;2.70;1.27;;;14.30;67.60;;;;;;941708;150;27367;-79
2023/10/16 15:31:31;;;;;;;1.55;1.10;;;14.30;67.50;;;;;;941577;150;27932;-78
2023/10/16 15:33:58;;;;;;;1.23;1.07;;;14.30;67.50;;;;;;941477;150;27342;-79
2023/10/16 15:36:25;;;;;;;0.85;0.85;;;14.20;67.50;;;;;;941562;149;27331;-73
2023/10/16 15:38:50;;;;;;;1.10;1.00;;;14.20;67.50;;;;;;940698;150;27225;-75
2023/10/16 15:41:17;;;;;;;3.72;1.37;;;14.20;67.40;;;;;;941759;151;27295;-73
2023/10/16 15:43:43;;;;;;;1.82;1.40;;;14.10;67.40;;;;;;943953;149;27365;-76
2023/10/16 15:46:22;;;;;;;4.17;1.53;;;14.10;67.40;;;;;;941425;151;27346;-79